Aeroporto :
LOGIN :

Iscrizione | Disclaimer

   EN    FR    IT 

 










Sommario :    VFR   VFR Marginale   IFR   IFR Intensivo   IFR Molto Intensivo
Visibilità : 
Base nubi : 
>= 8 km
>= 3000ft
5 / 8 km
1000 / 3000 ft
1500m / 5 km
500 / 1000 ft
800 / 1500m
200 / 500 ft
< 800m
< 200 ft
Simboli :   Temporali  Nebbia  Neve Forte  Precipitazioni Forti  Vento > 20 kt
SIGMETs :   Varie  Temporali  Ghiacco  Turbolenza  Onda orograficha  Ceneri Vulcaniche






- Altitudine del aeroporto : 796 ft
- Codice IATA : SYT


LFLN - Saint-Yan

ULTIMO METAR :
  • 191730Z AUTO 30010KT 9999 FEW031/// SCT039/// BKN052/// //////CB 21/17 Q1019 NOSIG

METARs OBSOLETI :
  • 191700Z AUTO 30008KT 9999 FEW035/// SCT044/// BKN056/// ///CB 24/16 Q1019 BECMG SCT025 BKN035
  • 191630Z AUTO 30009KT 260V330 9999 FEW033 BKN072 25/16 Q1019 TEMPO FEW030TCU
  • 191600Z AUTO 28008KT 250V310 9999 SCT034 BKN072 24/16 Q1019 TEMPO FEW030TCU
  • 191530Z AUTO 30009KT 270V330 9999 FEW029 25/16 Q1019 TEMPO FEW030TCU
  • 191500Z AUTO 30008KT 250V340 9999 FEW028 24/17 Q1019 TEMPO FEW030TCU

TAF TAF LFLN
Valido dal 19 a 18 ore il 20 a 03 ore UTC


191700Z 1918/2003 30010KT 9999 FEW035
TEMPO 1918/1921 -SHRA FEW030TCU
BECMG 1921/1924 VRB02KT



MetMap, La meteo Aeronautica in un colpo d'occhio ! - Copyright ORBIFLY Dicembre 2007 - Disclaimer

ORBIFLY MET'MAP TEAM :

Programmazione e sviluppo : Alexandra Zaïnal
Concezione : Baudouin d'Aumeries
Supporto tecnico e logistico : Manuel Goepfert
Aiuto : Marc-Olivier Méhu
Aiuto per la traduzione : Arnaldo La Scala




FONTI E CREDITI :

   NOAA